EYPAEYKA

Guest
Details From EYPA - PALANGA INTL
To EYKA - Kaunas Intl
Flight Number -
Tags generated
Created
Modified
Stats Distance 119 nm / 219 km
Max Altitude 13,000 ft / 3,962 m
Waypoints 5
Social Downloads 1
Likes 0
Share VATSIM

Download

Looking for another format? Having issues loading an existing format? Contact us
Advertisement - Login to hide

Notes

Basic altitude profile: - Ascent Rate: 2500ft/min - Ascent Speed: 250kts - Cruise Altitude: 35000ft - Cruise Speed: 420kts - Descent Rate: 1500ft/min - Descent Speed: 250kts Options: - Use NATs: yes - Use PACOTS: yes - Use low airways: yes - Use high airways: yes

Route

EYPA MANUX M996 PIVOM EYKA

ID Type Via Altitude Latitude Longitude Leg Dist Tot Dist Heading (true) Name
O EYPA APT - 0 ft / 0 m 55.97312˚ 21.09381˚ - 0 nm - PALANGA INTL
MANUX FIX - 13,000 ft / 3,962 m 55.67611˚ 22.03556˚ 36 nm 36 nm 119° / 120° -
TOTRA FIX M996 (AWY-LO) 11,400 ft / 3,475 m 55.44306˚ 22.77111˚ 28 nm 65 nm 119° / 120° -
PIVOM FIX M996 (AWY-LO) 9,500 ft / 2,896 m 55.29833˚ 23.21639˚ 17 nm 82 nm 120° / 120° -
O EYKA APT - 0 ft / 0 m 54.96388˚ 24.08400˚ 35 nm 118 nm 124° / 124° Kaunas Intl

Altitude Profile

Advertisement - Login to hide

EYPA

Details ICAO EYPA (PLQ)
Name PALANGA INTL
Region Lithuania
Timezone Europe/Vilnius (UTC+2.0)
Stats Elevation 33 ft / 10 m (AMSL)
Location 55.973115° 21.093811°
Runways 1
Magnetic Variation 6.524° E

METAR

EYPA 120450Z 15012KT 9999 -RA OVC035 04/02 Q0989 R19/2///95

Decode

TAF

Not found

Departure Runways

ID Width Length Bearing (true) Bearing (mag) Surface Threshold Offset Overrun Length
01 131 ft / 40 m 6,473 ft / 1,973 m 12.70° 6.18° Asphalt 0 ft / 0 m 0 ft / 0 m
19 131 ft / 40 m 6,473 ft / 1,973 m 192.71° 186.19° Asphalt 0 ft / 0 m 0 ft / 0 m

EYKA

Details ICAO EYKA (KUN)
Name Kaunas Intl
Region Lithuania
Timezone Europe/Vilnius (UTC+2.0)
Stats Elevation 256 ft / 78 m (AMSL)
Location 54.963881° 24.084001°
Runways 1
Magnetic Variation 7.208° E

METAR

EYKA 120450Z 14012KT 9999 FEW011 SCT048 OVC130 03/00 Q0994 R08/29//95

Decode

TAF

TAF TAF EYKA 112307Z 1200/1224 15012G22KT 5000 BR BKN005 TEMPO 1200/1209 -RA BKN015 BECMG 1217/1219 21020G32KT 8000 BKN025

Decode

Destination Runways

ID Width Length Bearing (true) Bearing (mag) Surface Threshold Offset Overrun Length
08 148 ft / 45 m 10,309 ft / 3,142 m 85.05° 77.84° Asphalt 1,116 ft / 340 m 240 ft / 73 m
26 148 ft / 45 m 10,309 ft / 3,142 m 265.09° 257.88° Asphalt 789 ft / 240 m 240 ft / 73 m

Approach Navaids

Runway Type Ident Frequency Range Bearing (true) Bearing (mag) Slope Elevation
08 Localiser IKM 109.50 MHz 18 nm / 33 km 85.09° 77.89° - 256 ft / 78 m (AMSL)
08 Glidescope IKM 109.50 MHz 10 nm / 19 km 85.07° 77.86° 3.00° 256 ft / 78 m (AMSL)
26 Localiser ISE 109.90 MHz 18 nm / 33 km 265.04° 257.84° - 256 ft / 78 m (AMSL)
26 Glidescope ISE 109.90 MHz 10 nm / 19 km 265.07° 257.86° 3.00° 256 ft / 78 m (AMSL)

Popular Alternatives